Nearby METAR Reports

 

KDWH - Houston/Dw Hooks, Texas, USA
Distance from station: WNW 3mi, 6km
Updated: 01/23/2020 3:53am
Mist, Overcast
Mist, Overcast
 Wind from calm
Wind: Calm
Temperature: 59°F , 15°C
Dew Point: 57°F , 14°C
Humidity: 94%
Barometer: 29.88 inHg , 1011.9 hPa
Summary: Mist
Clouds: Overcast
Visibility: 6 miles , 10 km
Cloud details: Few Clouds 500 ft
Few Clouds 1500 ft
Overcast 2300 ft
2020/01/23 09:53 KDWH 230953Z AUTO 00000KT 6SM BR FEW005 FEW015 OVC023 15/14 A2988 RMK AO2 RAB0857E17 SLP117 P0000 T01500139
KIAH - Houston/Intnl, Texas, USA
Distance from station: ESE 9mi, 14km
Updated: 01/23/2020 3:53am
Overcast
Overcast
 Wind from W
Wind: W 3 mph , 6 km/h
Temperature: 61°F , 16°C
Dew Point: 57°F , 14°C
Humidity: 88%
Barometer: 29.88 inHg , 1011.9 hPa
Clouds: Overcast
Visibility: 8 miles , 13 km
Cloud details: Few Clouds 600 ft
Partly cloudy 1200 ft
Overcast 2500 ft
2020/01/23 09:53 KIAH 230953Z 26003KT 8SM FEW006 SCT012 OVC025 16/14 A2988 RMK AO2 RAB36E45 SLP116 P0000 T01560144
 
KCXO - Conroe, Texas, USA
Distance from station: NNE 21mi, 34km
Updated: 01/23/2020 4:36am
Fog, Overcast
Fog, Overcast
 Wind from calm
Wind: Calm
Temperature: 54°F , 12°C
Dew Point: 54°F , 12°C
Humidity: 100%
Barometer: 29.88 inHg , 1011.9 hPa
Summary: Fog
Clouds: Overcast
Visibility: 1/2 mile , 0.8 km
Cloud details: Few Clouds 600 ft
Partly cloudy 1600 ft
Overcast 3400 ft
2020/01/23 10:36 KCXO 231036Z AUTO 00000KT 1/2SM FG FEW006 SCT016 OVC034 12/12 A2988 RMK AO2 T01220117
KMCJ - Houston/Univ, Texas, USA
Distance from station: SSE 24mi, 39km
Updated: 01/23/2020 4:35am
Overcast
Overcast
 Wind from varies
Wind: varies 6 mph , 9 km/h, Gust: 12 mph , 19 km/h
Temperature: 61°F , 16°C
Dew Point: 61°F , 16°C
Humidity: 100%
Barometer: 29.88 inHg , 1011.9 hPa
Clouds: Overcast
Visibility: 9 miles , 14 km
Cloud details: Partly cloudy 300 ft
Partly cloudy 800 ft
Overcast 1400 ft
2020/01/23 10:35 KMCJ 231035Z AUTO VRB05G10KT 9SM SCT003 SCT008 OVC014 16/16 A2988 RMK A01
 
KTME - Houston Exec, Texas, USA
Distance from station: SW 30mi, 48km
Updated: 01/23/2020 4:35am
Overcast
Overcast
 Wind from W
Wind: W 6 mph , 9 km/h
Temperature: 59°F , 15°C
Dew Point: 59°F , 15°C
Humidity: 100%
Barometer: 29.89 inHg , 1012.2 hPa
Clouds: Overcast
Visibility: 9 miles , 14 km
Cloud details: Overcast 1300 ft
2020/01/23 10:35 KTME 231035Z AUTO 28005KT 9SM OVC013 15/15 A2989 RMK AO2
KHOU - Houston/Hobby, Texas, USA
Distance from station: SSE 32mi, 51km
Updated: 01/23/2020 3:53am
Overcast
Overcast
 Wind from SSW
Wind: SSW 5 mph , 7 km/h
Temperature: 61°F , 16°C
Dew Point: 59°F , 15°C
Humidity: 94%
Barometer: 29.87 inHg , 1011.5 hPa
Clouds: Overcast
Visibility: 10 miles , 16 km
Cloud details: Overcast 1200 ft
2020/01/23 09:53 KHOU 230953Z 21004KT 10SM OVC012 16/15 A2987 RMK AO2 SLP120 T01610150 $
 
KSGR - Houston/Sugar La, Texas, USA
Distance from station: SSW 32mi, 51km
Updated: 01/23/2020 4:26am
Overcast
Overcast
 Wind from W
Wind: W 6 mph , 9 km/h
Temperature: 61°F , 16°C
Dew Point: 59°F , 15°C
Humidity: 94%
Barometer: 29.88 inHg , 1011.9 hPa
Clouds: Overcast
Visibility: 10 miles , 16 km
Cloud details: Partly cloudy 600 ft
Overcast 1100 ft
2020/01/23 10:26 KSGR 231026Z AUTO 28005KT 10SM SCT006 OVC011 16/15 A2988 RMK AO2 T01560150
K6R3 - Cleveland Muni, Texas, USA
Distance from station: NE 36mi, 58km
Updated: 01/23/2020 4:15am
Light rain, Overcast
Light rain, Overcast
 Wind from calm
Wind: Calm
Temperature: 57°F , 14°C
Dew Point: 57°F , 14°C
Humidity: 100%
Barometer: 29.88 inHg , 1011.9 hPa
Summary: Light rain
Clouds: Overcast
Visibility: 7 miles , 11 km
Cloud details: Partly cloudy 300 ft
Mostly cloudy 1700 ft
Overcast 4800 ft
2020/01/23 10:15 K6R3 231015Z AUTO 00000KT 7SM -RA SCT003 BKN017 OVC048 14/14 A2988 RMK AO2 T01400140
 
KAXH - Houston/Southwst, Texas, USA
Distance from station: S 37mi, 60km
Updated: 01/23/2020 4:35am
Overcast
Overcast
 Wind from WNW
Wind: WNW 8 mph , 13 km/h
Temperature: 59°F , 15°C
Dew Point: 59°F , 15°C
Humidity: 100%
Barometer: 29.90 inHg , 1012.5 hPa
Clouds: Overcast
Visibility: 7 miles , 11 km
Cloud details: Overcast 500 ft
2020/01/23 10:35 KAXH 231035Z AUTO 29007KT 7SM OVC005 15/15 A2990 RMK AO2 T01520152
KEFD - Houston/Ellingto, Texas, USA
Distance from station: SSE 37mi, 60km
Updated: 01/23/2020 3:50am
Overcast
Overcast
 Wind from SSW
Wind: SSW 5 mph , 7 km/h
Temperature: 61°F , 16°C
Dew Point: 59°F , 15°C
Humidity: 94%
Barometer: 29.87 inHg , 1011.5 hPa
Clouds: Overcast
Visibility: 9 miles , 14 km
Cloud details: Overcast 1400 ft
2020/01/23 09:50 KEFD 230950Z 21004KT 9SM OVC014 16/15 A2987
 
KLVJ - Houston, Texas, USA
Distance from station: SSE 40mi, 64km
Updated: 01/23/2020 4:30am
Overcast
Overcast
 Wind from W
Wind: W 7 mph , 11 km/h
Temperature: 63°F , 17°C
Dew Point: 59°F , 15°C
Humidity: 88%
Barometer: 29.89 inHg , 1012.2 hPa
Clouds: Overcast
Visibility: 10 miles , 16 km
Cloud details: Partly cloudy 700 ft
Overcast 1300 ft
2020/01/23 10:30 KLVJ 231030Z AUTO 28006KT 10SM SCT007 OVC013 17/15 A2989 RMK AO2 T01670150
KUTS - Huntsville, Texas, USA
Distance from station: N 48mi, 78km
Updated: 01/23/2020 3:53am
Overcast
Overcast
 Wind from calm
Wind: Calm
Temperature: 57°F , 14°C
Dew Point: 55°F , 13°C
Humidity: 94%
Barometer: 29.87 inHg , 1011.5 hPa
Clouds: Overcast
Visibility: 10 miles , 16 km
Cloud details: Overcast 400 ft
2020/01/23 09:53 KUTS 230953Z AUTO 00000KT 10SM OVC004 14/13 A2987 RMK AO2 SLP114 T01440128